Time;durP1;ratioP1;P1;durP2;ratioP2;P2;SDS_P1;SDS_P2;PMS_P1;PMS_P2;Temp;Humidity;BMP_temperature;BMP_pressure;BME280_temperature;BME280_humidity;BME280_pressure;Samples;Min_cycle;Max_cycle;Signal;HPM_P1;HPM_P2
2023/01/21 00:01:13;;;;;;;35.05;19.90;;;-0.30;99.90;;;;;;5066522;28;20044;-65
2023/01/21 00:03:39;;;;;;;38.97;21.83;;;-0.30;99.90;;;;;;5066223;28;20044;-63
2023/01/21 00:06:06;;;;;;;44.15;21.33;;;-0.30;99.90;;;;;;5069177;28;20518;-65
2023/01/21 00:08:31;;;;;;;38.58;20.50;;;-0.30;99.90;;;;;;5068859;28;20044;-64
2023/01/21 00:11:07;;;;;;;34.60;18.77;;;-0.30;99.90;;;;;;5070422;28;20839;-63
2023/01/21 00:13:34;;;;;;;30.92;17.00;;;-0.30;99.90;;;;;;5069576;28;20490;-64
2023/01/21 00:16:01;;;;;;;28.02;16.02;;;-0.40;99.90;;;;;;5064013;28;20080;-65
2023/01/21 00:18:27;;;;;;;26.83;15.98;;;-0.40;99.90;;;;;;5070172;28;20033;-63
2023/01/21 00:20:52;;;;;;;36.17;18.52;;;-0.40;99.90;;;;;;5069352;28;20043;-64
2023/01/21 00:23:18;;;;;;;36.50;18.48;;;-0.40;99.90;;;;;;5069336;28;20044;-64
2023/01/21 00:25:44;;;;;;;32.28;18.48;;;-0.40;99.90;;;;;;5068896;28;20040;-65
2023/01/21 00:28:10;;;;;;;30.13;16.10;;;-0.40;99.90;;;;;;5070389;28;20075;-64
2023/01/21 00:30:35;;;;;;;28.92;16.65;;;-0.50;99.90;;;;;;5068926;28;20045;-63
2023/01/21 00:33:02;;;;;;;27.35;15.70;;;-0.50;99.90;;;;;;5069012;28;20092;-65
2023/01/21 00:35:28;;;;;;;31.40;16.83;;;-0.50;99.90;;;;;;5069162;28;20064;-64
2023/01/21 00:37:53;;;;;;;32.20;17.55;;;-0.50;99.90;;;;;;5068561;28;20075;-64
2023/01/21 00:40:20;;;;;;;32.10;17.33;;;-0.50;99.90;;;;;;5069073;28;20433;-64
2023/01/21 00:42:45;;;;;;;32.40;16.92;;;-0.50;99.90;;;;;;5069243;28;20534;-62
2023/01/21 00:45:11;;;;;;;32.08;17.63;;;-0.60;99.90;;;;;;5068848;28;20040;-64
2023/01/21 00:47:37;;;;;;;29.20;16.42;;;-0.50;99.90;;;;;;5068674;28;20048;-65
2023/01/21 00:50:03;;;;;;;30.35;16.67;;;-0.50;99.90;;;;;;5069979;28;20032;-65
2023/01/21 00:52:29;;;;;;;30.33;16.77;;;-0.50;99.90;;;;;;5052218;28;20089;-64
2023/01/21 00:54:54;;;;;;;29.92;16.90;;;-0.50;99.90;;;;;;5069002;28;20399;-62
2023/01/21 00:57:20;;;;;;;31.13;16.30;;;-0.50;99.90;;;;;;5051498;28;20478;-65
2023/01/21 00:59:46;;;;;;;31.35;17.65;;;-0.40;99.90;;;;;;5071254;28;20460;-64
2023/01/21 01:02:11;;;;;;;31.88;18.23;;;-0.40;99.90;;;;;;5072633;28;20045;-65
2023/01/21 01:04:37;;;;;;;34.55;18.58;;;-0.40;99.90;;;;;;5072797;28;20076;-64
2023/01/21 01:07:03;;;;;;;32.22;17.92;;;-0.30;99.90;;;;;;5071902;28;20114;-64
2023/01/21 01:09:29;;;;;;;35.28;18.58;;;-0.40;99.90;;;;;;5072423;28;20060;-65
2023/01/21 01:11:55;;;;;;;32.75;18.00;;;-0.30;99.90;;;;;;5072832;28;20040;-64
2023/01/21 01:14:21;;;;;;;33.38;18.92;;;-0.30;99.90;;;;;;5072421;28;20062;-64
2023/01/21 01:16:47;;;;;;;34.13;18.77;;;-0.30;99.90;;;;;;5072244;28;20041;-65
2023/01/21 01:19:13;;;;;;;35.30;17.95;;;-0.20;99.90;;;;;;5072682;28;20038;-65
2023/01/21 01:21:39;;;;;;;34.95;18.23;;;-0.20;99.90;;;;;;5064900;28;20049;-65
2023/01/21 01:24:05;;;;;;;35.55;18.58;;;-0.20;99.90;;;;;;5070862;28;20047;-65
2023/01/21 01:26:31;;;;;;;32.47;18.40;;;-0.20;99.90;;;;;;5065465;28;20033;-65
2023/01/21 01:28:57;;;;;;;33.50;18.08;;;-0.10;99.90;;;;;;5052384;28;20102;-64
2023/01/21 01:31:22;;;;;;;38.33;18.00;;;-0.20;99.90;;;;;;5071797;28;20480;-65
2023/01/21 01:33:48;;;;;;;38.17;19.38;;;-0.20;99.90;;;;;;5072002;28;20043;-65
2023/01/21 01:36:17;;;;;;;38.10;20.25;;;-0.20;99.90;;;;;;5071589;28;20032;-64
2023/01/21 01:38:43;;;;;;;38.05;18.73;;;-0.20;99.90;;;;;;5070901;28;20036;-64
2023/01/21 01:41:20;;;;;;;40.03;21.40;;;-0.20;99.90;;;;;;5071170;28;21691;-62
2023/01/21 01:43:48;;;;;;;35.95;19.55;;;-0.20;99.90;;;;;;5072420;28;20116;-63
2023/01/21 01:46:14;;;;;;;33.60;18.60;;;-0.20;99.90;;;;;;5071761;28;20040;-65
2023/01/21 01:48:43;;;;;;;33.22;18.50;;;-0.20;99.90;;;;;;5070312;28;20125;-65
2023/01/21 01:51:09;;;;;;;37.70;18.90;;;-0.20;99.90;;;;;;5070324;28;20415;-65
2023/01/21 01:53:38;;;;;;;37.28;18.83;;;-0.20;99.90;;;;;;5071822;28;20029;-65
2023/01/21 01:56:04;;;;;;;36.17;18.85;;;-0.20;99.90;;;;;;5067283;28;20055;-64
2023/01/21 01:58:31;;;;;;;40.58;18.83;;;-0.20;99.90;;;;;;5070165;28;20060;-65
2023/01/21 02:00:58;;;;;;;39.20;19.92;;;-0.20;99.90;;;;;;5067790;28;20498;-65
2023/01/21 02:03:44;;;;;;;32.72;17.85;;;-0.20;99.90;;;;;;5070367;28;20044;-65
2023/01/21 02:06:14;;;;;;;32.88;17.90;;;-0.20;99.90;;;;;;5069678;28;20032;-64
2023/01/21 02:08:43;;;;;;;29.67;17.63;;;-0.10;99.90;;;;;;5071557;28;20037;-64
2023/01/21 02:11:17;;;;;;;36.78;18.33;;;-0.10;99.90;;;;;;5069641;28;20052;-65
2023/01/21 02:13:52;;;;;;;34.85;18.75;;;-0.10;99.90;;;;;;5071441;28;20053;-63
2023/01/21 02:16:46;;;;;;;36.85;19.85;;;-0.10;99.90;;;;;;5067924;28;20052;-64
2023/01/21 02:19:41;;;;;;;31.67;18.05;;;-0.10;99.90;;;;;;5067588;28;20093;-65
2023/01/21 02:22:35;;;;;;;32.72;18.00;;;-0.10;99.90;;;;;;5066910;28;20487;-64
2023/01/21 02:25:19;;;;;;;33.63;18.45;;;0.00;99.90;;;;;;5009102;28;20109;-64
2023/01/21 02:28:14;;;;;;;33.90;17.15;;;0.00;99.90;;;;;;5013858;28;20519;-65
2023/01/21 02:30:40;;;;;;;37.03;19.35;;;0.10;99.90;;;;;;5012241;28;20062;-65
2023/01/21 02:33:30;;;;;;;36.30;19.50;;;0.00;99.90;;;;;;5021929;28;20109;-63
2023/01/21 02:36:14;;;;;;;35.80;19.70;;;0.10;99.90;;;;;;5011989;28;20041;-65
2023/01/21 02:38:55;;;;;;;32.83;18.13;;;0.10;99.90;;;;;;5011458;28;20124;-65
2023/01/21 02:41:52;;;;;;;33.45;18.70;;;0.10;99.90;;;;;;5013034;28;20513;-65
2023/01/21 02:44:34;;;;;;;40.45;18.50;;;0.10;99.90;;;;;;4948545;29;20154;-65
2023/01/21 02:47:13;;;;;;;35.33;18.10;;;0.20;99.90;;;;;;4934354;29;20266;-65
2023/01/21 02:49:42;;;;;;;38.35;19.90;;;0.20;99.90;;;;;;4947455;29;20506;-64
2023/01/21 02:52:16;;;;;;;36.60;19.20;;;0.20;99.90;;;;;;4934848;29;20498;-64
2023/01/21 02:54:47;;;;;;;39.22;19.75;;;0.20;99.90;;;;;;4932807;29;20548;-64
2023/01/21 02:57:18;;;;;;;44.63;21.13;;;0.20;99.90;;;;;;4935858;29;20077;-63
2023/01/21 02:59:47;;;;;;;39.78;19.80;;;0.10;99.90;;;;;;4933067;29;20090;-65
2023/01/21 03:02:21;;;;;;;40.35;20.58;;;0.10;99.90;;;;;;4969316;28;20054;-65
2023/01/21 03:04:56;;;;;;;40.13;19.80;;;0.10;99.90;;;;;;4975813;28;20482;-62
2023/01/21 03:07:32;;;;;;;38.83;19.83;;;0.10;99.90;;;;;;4993395;28;20058;-65
2023/01/21 03:10:05;;;;;;;41.88;20.08;;;0.10;99.90;;;;;;4992839;28;20038;-64
2023/01/21 03:12:36;;;;;;;40.70;20.10;;;0.20;99.90;;;;;;5005075;28;20088;-64
2023/01/21 03:18:18;;;;;;;39.80;19.27;;;0.20;99.90;;;;;;4991937;28;20625;-64
2023/01/21 03:21:01;;;;;;;38.28;19.30;;;0.20;99.90;;;;;;5030159;28;20071;-64
2023/01/21 03:23:38;;;;;;;40.15;19.95;;;0.20;99.90;;;;;;5069953;28;20055;-64
2023/01/21 03:26:06;;;;;;;42.45;18.50;;;0.10;99.90;;;;;;5068061;28;20093;-63
2023/01/21 03:28:38;;;;;;;35.53;18.33;;;0.20;99.90;;;;;;5069777;28;20044;-64
2023/01/21 03:31:15;;;;;;;39.45;18.90;;;0.20;99.90;;;;;;5069774;28;20626;-63
2023/01/21 03:33:44;;;;;;;41.03;19.63;;;0.20;99.90;;;;;;5069868;28;20474;-64
2023/01/21 03:36:25;;;;;;;41.83;19.27;;;0.20;99.90;;;;;;5068392;28;20033;-65
2023/01/21 03:38:55;;;;;;;37.80;18.52;;;0.20;99.90;;;;;;5069726;28;20047;-65
2023/01/21 03:41:24;;;;;;;35.03;19.17;;;0.20;99.90;;;;;;5069531;28;20049;-65
2023/01/21 03:43:50;;;;;;;42.85;20.48;;;0.20;99.90;;;;;;5069535;28;20123;-63
2023/01/21 03:46:25;;;;;;;40.03;19.90;;;0.20;99.90;;;;;;5069332;28;20052;-64
2023/01/21 03:49:03;;;;;;;37.45;19.33;;;0.20;99.90;;;;;;5069457;28;20045;-63
2023/01/21 03:51:35;;;;;;;41.78;19.52;;;0.20;99.90;;;;;;5070016;28;20040;-65
2023/01/21 03:54:00;;;;;;;40.17;19.73;;;0.20;99.90;;;;;;5069587;28;20037;-65
2023/01/21 03:56:27;;;;;;;34.85;18.90;;;0.20;99.90;;;;;;5069405;28;20141;-64
2023/01/21 03:58:53;;;;;;;35.42;19.85;;;0.20;99.90;;;;;;5069300;28;20067;-63
2023/01/21 04:01:19;;;;;;;40.00;19.92;;;0.20;99.90;;;;;;5069540;28;20574;-64
2023/01/21 04:03:44;;;;;;;44.47;20.88;;;0.20;99.90;;;;;;5066972;28;20083;-64
2023/01/21 04:06:15;;;;;;;42.72;21.35;;;0.10;99.90;;;;;;5069150;28;20036;-65
2023/01/21 04:08:41;;;;;;;37.30;19.65;;;0.20;99.90;;;;;;5065707;28;20040;-65
2023/01/21 04:11:06;;;;;;;41.47;20.50;;;0.20;99.90;;;;;;5067401;28;20372;-65
2023/01/21 04:13:32;;;;;;;42.20;20.35;;;0.20;99.90;;;;;;5069334;28;20032;-63
2023/01/21 04:15:58;;;;;;;41.63;21.25;;;0.20;99.90;;;;;;5067118;28;20423;-64
2023/01/21 04:18:23;;;;;;;39.17;19.83;;;0.20;99.90;;;;;;5068762;28;20395;-65
2023/01/21 04:20:49;;;;;;;39.50;20.70;;;0.20;99.90;;;;;;5069195;28;20429;-64
2023/01/21 04:23:15;;;;;;;41.45;21.67;;;0.20;99.90;;;;;;5069666;28;20479;-63
2023/01/21 04:25:40;;;;;;;36.42;19.52;;;0.20;99.90;;;;;;5069262;28;20048;-63
2023/01/21 04:28:06;;;;;;;40.63;21.02;;;0.20;99.90;;;;;;5069298;28;20051;-63
2023/01/21 04:30:31;;;;;;;38.75;19.98;;;0.20;99.90;;;;;;5051979;28;20048;-65
2023/01/21 04:32:57;;;;;;;39.45;19.42;;;0.20;99.90;;;;;;5069126;28;20044;-65
2023/01/21 04:35:23;;;;;;;38.38;19.17;;;0.10;99.90;;;;;;5068570;28;20033;-65
2023/01/21 04:37:48;;;;;;;40.60;21.17;;;0.20;99.90;;;;;;5068944;28;20403;-65
2023/01/21 04:40:14;;;;;;;40.58;19.20;;;0.20;99.90;;;;;;5068525;28;20491;-64
2023/01/21 04:42:41;;;;;;;37.75;19.92;;;0.20;99.90;;;;;;5068916;28;20129;-64
2023/01/21 04:45:07;;;;;;;39.63;19.98;;;0.20;99.90;;;;;;5068856;28;20115;-65
2023/01/21 04:47:33;;;;;;;38.72;19.02;;;0.30;99.90;;;;;;5069177;28;20482;-63
2023/01/21 04:49:59;;;;;;;40.75;20.65;;;0.40;99.90;;;;;;5068754;28;20118;-64
2023/01/21 04:52:24;;;;;;;41.13;19.38;;;0.30;99.90;;;;;;5068521;28;20049;-64
2023/01/21 04:54:50;;;;;;;37.08;18.98;;;0.40;99.90;;;;;;5070355;28;20040;-65
2023/01/21 04:57:16;;;;;;;35.70;18.95;;;0.40;99.90;;;;;;5052329;28;20095;-65
2023/01/21 04:59:41;;;;;;;34.75;18.33;;;0.40;99.90;;;;;;5068731;28;20044;-64
2023/01/21 05:02:07;;;;;;;32.15;18.13;;;0.50;99.90;;;;;;5066181;28;20094;-63
2023/01/21 05:04:33;;;;;;;33.50;17.65;;;0.50;99.90;;;;;;5051194;28;20079;-65
2023/01/21 05:06:58;;;;;;;31.70;17.95;;;0.50;99.90;;;;;;5068982;28;20123;-65
2023/01/21 05:09:24;;;;;;;32.63;18.08;;;0.50;99.90;;;;;;5068383;28;20132;-64
2023/01/21 05:11:50;;;;;;;34.88;18.25;;;0.50;99.90;;;;;;5068187;28;20040;-65
2023/01/21 05:14:15;;;;;;;32.92;17.90;;;0.50;99.90;;;;;;5068373;28;20037;-63
2023/01/21 05:16:41;;;;;;;35.97;18.35;;;0.50;99.90;;;;;;5058484;28;20403;-64
2023/01/21 05:19:07;;;;;;;32.55;17.55;;;0.50;99.90;;;;;;5062313;28;20037;-64
2023/01/21 05:21:32;;;;;;;34.00;18.05;;;0.50;99.90;;;;;;5067921;28;20490;-65
2023/01/21 05:23:58;;;;;;;33.58;18.73;;;0.50;99.90;;;;;;5068014;28;20509;-65
2023/01/21 05:26:24;;;;;;;30.75;16.85;;;0.40;99.90;;;;;;5059990;28;20127;-65
2023/01/21 05:28:49;;;;;;;36.72;17.95;;;0.40;99.90;;;;;;5068135;28;20041;-63
2023/01/21 05:31:15;;;;;;;37.17;18.98;;;0.30;99.90;;;;;;5068752;28;20456;-65
2023/01/21 05:33:42;;;;;;;30.58;17.42;;;0.30;99.90;;;;;;5049452;28;20040;-64
2023/01/21 05:36:09;;;;;;;33.63;17.35;;;0.30;99.90;;;;;;5068290;28;20091;-64
2023/01/21 05:38:34;;;;;;;32.38;16.95;;;0.30;99.90;;;;;;5068415;28;20037;-64
2023/01/21 05:41:01;;;;;;;34.08;18.50;;;0.30;99.90;;;;;;5068455;28;20047;-63
2023/01/21 05:43:28;;;;;;;37.28;18.83;;;0.30;99.90;;;;;;5068141;28;20071;-64
2023/01/21 05:45:53;;;;;;;40.42;18.23;;;0.30;99.90;;;;;;5070167;28;20096;-64
2023/01/21 05:48:19;;;;;;;38.42;18.35;;;0.30;99.90;;;;;;5071956;28;20060;-65
2023/01/21 05:50:46;;;;;;;35.85;18.95;;;0.40;99.90;;;;;;5071649;28;20079;-64
2023/01/21 05:53:11;;;;;;;33.78;17.73;;;0.40;99.90;;;;;;5055303;28;20033;-66
2023/01/21 05:55:37;;;;;;;37.63;18.27;;;0.40;99.90;;;;;;5071788;28;20043;-64
2023/01/21 05:58:04;;;;;;;38.80;19.00;;;0.40;99.90;;;;;;5072014;28;20039;-65
2023/01/21 06:00:30;;;;;;;36.55;17.45;;;0.50;99.90;;;;;;5071930;28;20036;-64
2023/01/21 06:02:58;;;;;;;32.35;17.13;;;0.60;99.90;;;;;;5071742;28;20048;-62
2023/01/21 06:05:24;;;;;;;31.90;16.20;;;0.60;99.90;;;;;;5071523;28;20090;-65
2023/01/21 06:07:50;;;;;;;31.27;16.05;;;0.60;99.90;;;;;;5071597;28;20036;-64
2023/01/21 06:10:15;;;;;;;29.90;16.55;;;0.60;99.90;;;;;;5071666;28;20037;-65
2023/01/21 06:12:41;;;;;;;33.22;16.52;;;0.70;99.90;;;;;;5071527;28;20044;-64
2023/01/21 06:15:07;;;;;;;38.65;17.98;;;0.70;99.90;;;;;;5071102;28;20060;-65
2023/01/21 06:17:33;;;;;;;36.47;16.92;;;0.70;99.90;;;;;;5071568;28;20048;-65
2023/01/21 06:19:58;;;;;;;28.73;15.48;;;0.70;99.90;;;;;;5070990;28;20052;-65
2023/01/21 06:22:24;;;;;;;32.83;16.30;;;0.60;99.90;;;;;;5071214;28;20044;-64
2023/01/21 06:24:49;;;;;;;32.20;16.52;;;0.70;99.90;;;;;;5071364;28;20404;-64
2023/01/21 06:27:15;;;;;;;32.58;17.00;;;0.70;99.90;;;;;;5071456;28;21815;-65
2023/01/21 06:29:41;;;;;;;31.00;17.13;;;0.70;99.90;;;;;;5068538;28;20041;-65
2023/01/21 06:32:06;;;;;;;32.53;17.23;;;0.70;99.90;;;;;;5070580;28;20035;-65
2023/01/21 06:34:32;;;;;;;32.03;17.15;;;0.70;99.90;;;;;;5071110;28;20418;-64
2023/01/21 06:36:58;;;;;;;32.10;15.93;;;0.70;99.90;;;;;;5071993;28;20040;-65
2023/01/21 06:39:24;;;;;;;34.10;17.40;;;0.70;99.90;;;;;;5054241;28;20150;-65
2023/01/21 06:41:49;;;;;;;35.50;17.90;;;0.70;99.90;;;;;;5071978;28;20403;-65
2023/01/21 06:44:15;;;;;;;34.70;16.75;;;0.70;99.90;;;;;;5070728;28;20036;-65
2023/01/21 06:46:41;;;;;;;33.95;17.33;;;0.80;99.90;;;;;;5070916;28;20040;-65
2023/01/21 06:49:06;;;;;;;34.90;17.85;;;0.80;99.90;;;;;;5070969;28;20040;-65
2023/01/21 06:51:32;;;;;;;35.35;17.73;;;0.80;99.90;;;;;;5070546;28;20033;-65
2023/01/21 06:53:57;;;;;;;37.25;17.85;;;0.80;99.90;;;;;;5067173;28;20036;-64
2023/01/21 06:56:23;;;;;;;33.15;16.60;;;0.80;99.90;;;;;;5069126;28;20401;-65
2023/01/21 06:58:49;;;;;;;33.25;16.10;;;0.80;99.90;;;;;;5070458;28;20082;-65
2023/01/21 07:01:14;;;;;;;28.20;14.60;;;0.80;99.90;;;;;;5070145;28;20036;-63
2023/01/21 07:03:40;;;;;;;32.72;16.48;;;0.80;99.90;;;;;;5068065;28;20059;-64
2023/01/21 07:06:06;;;;;;;32.60;16.08;;;0.90;99.90;;;;;;5070064;28;20037;-64
2023/01/21 07:08:31;;;;;;;30.40;15.98;;;0.90;99.90;;;;;;5070146;28;20078;-64
2023/01/21 07:10:57;;;;;;;31.13;16.52;;;0.90;99.90;;;;;;5070018;28;20098;-66
2023/01/21 07:13:23;;;;;;;30.38;15.68;;;0.80;99.90;;;;;;5069204;28;20055;-64
2023/01/21 07:15:48;;;;;;;35.08;15.98;;;0.80;99.90;;;;;;5071057;28;20044;-65
2023/01/21 07:18:14;;;;;;;32.38;17.17;;;0.80;99.90;;;;;;5069848;28;20079;-65
2023/01/21 07:20:41;;;;;;;34.20;17.00;;;0.80;99.90;;;;;;5070700;28;20032;-64
2023/01/21 07:23:07;;;;;;;34.65;17.45;;;0.70;99.90;;;;;;5066746;28;20114;-63
2023/01/21 07:25:34;;;;;;;30.63;15.43;;;0.70;99.90;;;;;;5068302;28;20127;-65
2023/01/21 07:28:00;;;;;;;35.58;16.50;;;0.70;99.90;;;;;;5069012;28;20115;-65
2023/01/21 07:30:26;;;;;;;37.90;16.83;;;0.70;99.90;;;;;;5070304;28;20082;-64
2023/01/21 07:32:52;;;;;;;29.73;15.40;;;0.60;99.90;;;;;;5065404;28;20068;-66
2023/01/21 07:35:17;;;;;;;36.05;17.27;;;0.60;99.90;;;;;;5065606;28;20029;-64
2023/01/21 07:37:43;;;;;;;41.55;18.48;;;0.60;99.90;;;;;;5068560;28;20036;-62
2023/01/21 07:40:09;;;;;;;37.90;19.52;;;0.60;99.90;;;;;;5069034;28;20526;-65
2023/01/21 07:42:35;;;;;;;39.38;18.73;;;0.60;99.90;;;;;;5070700;28;20036;-65
2023/01/21 07:45:02;;;;;;;42.95;19.73;;;0.60;99.90;;;;;;5068469;28;20391;-64
2023/01/21 07:47:28;;;;;;;43.70;19.67;;;0.60;99.90;;;;;;5069154;28;20048;-64
2023/01/21 07:49:54;;;;;;;39.00;18.83;;;0.60;99.90;;;;;;5069433;28;20040;-64
2023/01/21 07:52:20;;;;;;;41.67;19.02;;;0.70;99.90;;;;;;5064131;28;20222;-65
2023/01/21 07:54:46;;;;;;;42.50;19.17;;;0.70;99.90;;;;;;5066836;28;20033;-65
2023/01/21 07:57:12;;;;;;;47.33;20.70;;;0.70;99.90;;;;;;5069458;28;20032;-64
2023/01/21 07:59:38;;;;;;;38.47;20.27;;;0.70;99.90;;;;;;5066924;28;20110;-64
2023/01/21 08:02:03;;;;;;;40.22;18.88;;;0.70;99.90;;;;;;5069245;28;20083;-64
2023/01/21 08:04:29;;;;;;;44.42;18.98;;;0.80;99.90;;;;;;5052810;28;20088;-64
2023/01/21 08:06:55;;;;;;;43.35;19.98;;;0.80;99.90;;;;;;5064535;28;20117;-65
2023/01/21 08:09:25;;;;;;;40.30;18.67;;;0.70;99.90;;;;;;5065331;28;20044;-63
2023/01/21 08:11:51;;;;;;;42.85;19.10;;;0.70;99.90;;;;;;5068958;28;20047;-63
2023/01/21 08:14:16;;;;;;;44.42;18.63;;;0.70;99.90;;;;;;5065622;28;20044;-64
2023/01/21 08:16:42;;;;;;;43.97;19.20;;;0.80;99.90;;;;;;5067790;28;20097;-64
2023/01/21 08:19:08;;;;;;;40.38;18.33;;;0.80;99.90;;;;;;5068066;28;20044;-65
2023/01/21 08:21:33;;;;;;;43.42;19.52;;;0.80;99.90;;;;;;5070032;28;20455;-63
2023/01/21 08:23:59;;;;;;;47.75;20.60;;;0.80;99.90;;;;;;5068901;28;20376;-64
2023/01/21 08:26:25;;;;;;;45.58;20.30;;;0.90;99.90;;;;;;5066605;28;20403;-66
2023/01/21 08:28:53;;;;;;;45.05;20.67;;;0.90;99.90;;;;;;5068199;28;20051;-63
2023/01/21 08:31:19;;;;;;;44.50;19.52;;;0.90;99.90;;;;;;5065881;28;20051;-64
2023/01/21 08:33:45;;;;;;;51.78;20.67;;;0.90;99.90;;;;;;5067640;28;20550;-63
2023/01/21 08:36:11;;;;;;;47.72;20.98;;;0.90;99.90;;;;;;5069122;28;20490;-65
2023/01/21 08:38:37;;;;;;;47.70;20.83;;;1.00;99.90;;;;;;5052402;28;20044;-62
2023/01/21 08:41:03;;;;;;;44.53;20.40;;;1.00;99.90;;;;;;5066538;28;20463;-64
2023/01/21 08:43:29;;;;;;;49.25;21.67;;;0.90;99.90;;;;;;5064074;28;20372;-64
2023/01/21 08:45:55;;;;;;;45.50;20.65;;;1.00;99.90;;;;;;5063774;28;20047;-65
2023/01/21 08:48:21;;;;;;;45.22;20.92;;;1.00;99.90;;;;;;5069952;28;20052;-64
2023/01/21 08:50:47;;;;;;;48.55;22.35;;;1.00;99.90;;;;;;5045926;28;20155;-65
2023/01/21 08:53:12;;;;;;;43.92;21.10;;;1.00;99.90;;;;;;5066831;28;20123;-64
2023/01/21 08:55:38;;;;;;;48.55;22.40;;;1.00;99.90;;;;;;5068694;28;20055;-66
2023/01/21 08:58:04;;;;;;;47.78;22.05;;;1.00;99.90;;;;;;5068250;28;20135;-64
2023/01/21 09:00:29;;;;;;;45.00;21.08;;;1.00;99.90;;;;;;5066788;28;20044;-65
2023/01/21 09:02:57;;;;;;;51.22;21.92;;;1.00;99.90;;;;;;5066124;28;20148;-64
2023/01/21 09:05:22;;;;;;;46.40;22.20;;;1.00;99.90;;;;;;5066580;28;20049;-63
2023/01/21 09:07:48;;;;;;;42.88;21.02;;;1.00;99.90;;;;;;5065803;28;20102;-64
2023/01/21 09:10:59;;;;;;;46.28;21.48;;;1.10;99.90;;;;;;5065342;28;20053;-65
2023/01/21 09:13:04;;;;;;;48.33;21.50;;;1.10;99.90;;;;;;5066314;28;20044;-64
2023/01/21 09:15:30;;;;;;;43.45;21.65;;;1.10;99.90;;;;;;5068039;28;20499;-65
2023/01/21 09:17:55;;;;;;;44.67;21.70;;;1.10;99.90;;;;;;5068106;28;20052;-63
2023/01/21 09:20:21;;;;;;;45.10;21.45;;;1.00;99.90;;;;;;5053970;28;20080;-66
2023/01/21 09:22:47;;;;;;;46.20;22.85;;;0.90;99.90;;;;;;5071703;28;20045;-63
2023/01/21 09:25:12;;;;;;;42.58;20.95;;;0.90;99.90;;;;;;5072327;28;20662;-65
2023/01/21 09:27:38;;;;;;;48.83;22.50;;;0.90;99.90;;;;;;5056050;28;20064;-66
2023/01/21 09:30:04;;;;;;;49.25;23.05;;;0.90;99.90;;;;;;5070315;28;20036;-65
2023/01/21 09:32:29;;;;;;;52.70;25.17;;;0.90;99.90;;;;;;5055843;28;20048;-66
2023/01/21 09:34:55;;;;;;;51.88;22.73;;;1.00;99.90;;;;;;5071932;28;20039;-63
2023/01/21 09:37:21;;;;;;;44.55;21.45;;;1.00;99.90;;;;;;5071793;28;20043;-65
2023/01/21 09:39:46;;;;;;;46.35;22.90;;;1.00;99.90;;;;;;5070170;28;20397;-64
2023/01/21 09:42:19;;;;;;;45.83;22.70;;;1.00;99.90;;;;;;5071935;28;20048;-66
2023/01/21 09:44:50;;;;;;;46.22;23.63;;;1.00;99.90;;;;;;5072120;28;20048;-67
2023/01/21 09:47:27;;;;;;;48.33;23.48;;;0.90;99.90;;;;;;5070781;28;20108;-63
2023/01/21 09:49:59;;;;;;;48.50;23.45;;;0.90;99.90;;;;;;5071497;28;20040;-64
2023/01/21 09:52:47;;;;;;;53.47;24.05;;;0.90;99.90;;;;;;5071667;28;20044;-65
2023/01/21 09:55:23;;;;;;;53.53;25.48;;;0.90;99.90;;;;;;5071225;28;20036;-65
2023/01/21 09:58:04;;;;;;;53.28;24.33;;;1.00;99.90;;;;;;5070646;28;20052;-63
2023/01/21 10:00:35;;;;;;;50.78;24.35;;;1.00;99.90;;;;;;5071378;28;20098;-66
2023/01/21 10:03:16;;;;;;;57.00;24.40;;;1.10;99.90;;;;;;5071600;28;20044;-63
2023/01/21 10:06:18;;;;;;;55.42;24.70;;;1.20;99.90;;;;;;5071303;28;20044;-65
2023/01/21 10:08:55;;;;;;;80.20;25.15;;;1.20;99.90;;;;;;5014114;28;20067;-66
2023/01/21 10:11:35;;;;;;;72.88;24.63;;;1.20;99.90;;;;;;5013714;28;20085;-65
2023/01/21 10:14:14;;;;;;;168.77;23.40;;;1.10;99.90;;;;;;5013398;28;20088;-65
2023/01/21 10:17:10;;;;;;;151.57;23.80;;;1.10;99.90;;;;;;5013805;28;20060;-64
2023/01/21 10:19:45;;;;;;;77.88;22.20;;;1.10;99.90;;;;;;5013879;28;20080;-66
2023/01/21 10:22:16;;;;;;;192.88;23.35;;;1.10;99.90;;;;;;5013806;28;20045;-63
2023/01/21 10:24:59;;;;;;;125.45;22.15;;;1.10;99.90;;;;;;5013406;28;20448;-66
2023/01/21 10:27:26;;;;;;;193.25;22.83;;;1.00;99.90;;;;;;4996822;28;20492;-66
2023/01/21 10:30:00;;;;;;;99.55;22.60;;;1.00;99.90;;;;;;5013250;28;20037;-64
2023/01/21 10:32:27;;;;;;;92.22;22.15;;;1.00;99.90;;;;;;5013009;28;20049;-64
2023/01/21 10:34:54;;;;;;;93.10;22.15;;;1.00;99.90;;;;;;5011898;28;20040;-66
2023/01/21 10:37:49;;;;;;;145.32;21.83;;;1.10;99.90;;;;;;4996822;28;20049;-65
2023/01/21 10:40:43;;;;;;;96.88;20.13;;;1.10;99.90;;;;;;5013581;28;20504;-65
2023/01/21 10:43:13;;;;;;;87.80;19.00;;;1.20;99.90;;;;;;5020608;28;20040;-64
2023/01/21 10:45:54;;;;;;;149.73;18.52;;;1.20;99.90;;;;;;5047234;28;20052;-63
2023/01/21 10:48:36;;;;;;;168.95;19.45;;;1.20;99.90;;;;;;5067619;28;20041;-66
2023/01/21 10:51:09;;;;;;;111.38;18.65;;;1.20;99.90;;;;;;5067836;28;20068;-67
2023/01/21 10:53:41;;;;;;;69.97;19.55;;;1.10;99.90;;;;;;5051105;28;20430;-66
2023/01/21 10:56:36;;;;;;;;;;;1.10;99.90;;;;;;5068856;28;20044;-65
2023/01/21 10:59:05;;;;;;;120.40;19.35;;;1.10;99.90;;;;;;5057839;28;19924;-66
2023/01/21 11:01:45;;;;;;;86.47;19.73;;;1.10;99.90;;;;;;5070348;28;20044;-66
2023/01/21 11:04:13;;;;;;;89.75;19.20;;;1.10;99.90;;;;;;5070142;28;20410;-65
2023/01/21 11:06:40;;;;;;;79.60;18.08;;;1.00;99.90;;;;;;5070055;28;20037;-65
2023/01/21 11:09:09;;;;;;;58.42;17.85;;;1.00;99.90;;;;;;5067232;28;20107;-64
2023/01/21 11:11:36;;;;;;;60.25;18.70;;;1.00;99.90;;;;;;5069316;28;20040;-64
2023/01/21 11:14:02;;;;;;;58.13;18.75;;;1.00;99.90;;;;;;5069268;28;20064;-64
2023/01/21 11:16:48;;;;;;;53.88;18.15;;;1.00;99.90;;;;;;5070025;28;20518;-67
2023/01/21 11:19:25;;;;;;;57.38;16.67;;;0.90;99.90;;;;;;5069841;28;20040;-66
2023/01/21 11:22:03;;;;;;;36.42;16.35;;;0.90;99.90;;;;;;5069409;28;20045;-67
2023/01/21 11:24:31;;;;;;;44.97;16.63;;;0.90;99.90;;;;;;5069719;28;20055;-65
2023/01/21 11:27:01;;;;;;;45.38;15.77;;;0.90;99.90;;;;;;5069404;28;20041;-63
2023/01/21 11:29:38;;;;;;;38.58;15.80;;;0.90;99.90;;;;;;5065828;28;20048;-65
2023/01/21 11:32:20;;;;;;;56.80;16.27;;;0.90;99.90;;;;;;5052594;28;20044;-64
2023/01/21 11:34:48;;;;;;;64.50;14.73;;;0.90;99.90;;;;;;5065636;28;20424;-66
2023/01/21 11:37:25;;;;;;;45.35;15.90;;;0.90;99.90;;;;;;5069433;28;20376;-65
2023/01/21 11:40:03;;;;;;;39.88;16.77;;;0.90;99.90;;;;;;5069591;28;20049;-67
2023/01/21 11:42:29;;;;;;;35.85;17.00;;;1.00;99.90;;;;;;5068253;28;20395;-68
2023/01/21 11:45:05;;;;;;;41.45;15.52;;;1.00;99.90;;;;;;5069725;28;20037;-66
2023/01/21 11:47:36;;;;;;;36.88;15.35;;;1.10;99.90;;;;;;5066980;28;20154;-68
2023/01/21 11:50:31;;;;;;;53.17;15.90;;;1.20;99.90;;;;;;5067324;28;20067;-66
2023/01/21 11:53:05;;;;;;;55.42;15.60;;;1.40;99.90;;;;;;5069790;28;20072;-65
2023/01/21 11:55:37;;;;;;;34.50;14.48;;;1.60;99.90;;;;;;5068433;28;20036;-64
2023/01/21 11:58:03;;;;;;;31.67;15.23;;;1.70;99.90;;;;;;5068341;28;20435;-63
2023/01/21 12:00:31;;;;;;;34.03;15.48;;;2.00;99.90;;;;;;5067361;28;20046;-63
2023/01/21 12:03:03;;;;;;;29.02;15.00;;;2.10;99.90;;;;;;5069612;28;20040;-65
2023/01/21 12:05:35;;;;;;;36.05;14.68;;;2.20;99.90;;;;;;5066829;28;20048;-63
2023/01/21 12:08:03;;;;;;;38.05;14.40;;;2.20;99.90;;;;;;5086329;28;20447;-65
2023/01/21 12:10:34;;;;;;;32.08;15.45;;;2.20;99.90;;;;;;5069916;28;20051;-65
2023/01/21 12:13:35;;;;;;;39.78;13.95;;;2.20;99.90;;;;;;5069480;28;20413;-62
2023/01/21 12:16:11;;;;;;;33.35;14.25;;;2.30;99.90;;;;;;5079946;28;20079;-65
2023/01/21 12:19:07;;;;;;;42.63;15.00;;;2.30;99.90;;;;;;5068845;28;20060;-64
2023/01/21 12:21:53;;;;;;;42.80;15.18;;;2.30;99.90;;;;;;5067703;28;20084;-66
2023/01/21 12:24:30;;;;;;;32.35;15.23;;;2.30;99.90;;;;;;5068673;28;20041;-66
2023/01/21 12:26:56;;;;;;;36.17;15.65;;;2.20;99.90;;;;;;5066120;28;20036;-69
2023/01/21 12:29:35;;;;;;;31.65;14.48;;;2.30;99.90;;;;;;5065633;28;20506;-66
2023/01/21 12:32:24;;;;;;;35.42;15.48;;;2.80;99.90;;;;;;5066152;28;20089;-66
2023/01/21 12:34:56;;;;;;;38.70;16.42;;;2.80;99.90;;;;;;5062641;28;20044;-67
2023/01/21 12:37:33;;;;;;;33.17;15.60;;;2.90;99.90;;;;;;5068595;28;20036;-67
2023/01/21 12:40:08;;;;;;;25.13;15.30;;;3.00;99.90;;;;;;5050046;28;20189;-66
2023/01/21 12:42:42;;;;;;;31.08;16.15;;;3.10;99.90;;;;;;5068264;28;20119;-66
2023/01/21 12:45:20;;;;;;;32.00;16.40;;;3.00;99.90;;;;;;5065599;28;20060;-67
2023/01/21 12:48:00;;;;;;;40.90;15.32;;;3.10;99.90;;;;;;5081506;28;20074;-66
2023/01/21 12:50:34;;;;;;;36.92;16.50;;;2.90;99.90;;;;;;5068035;28;20529;-66
2023/01/21 12:53:22;;;;;;;34.35;16.83;;;2.80;99.90;;;;;;5064606;28;20072;-66